createdAt,value
2018-12-29T03:07:00.523Z,1.50
2018-12-29T03:09:44.144Z,1.65
2018-12-29T03:12:27.719Z,1.70
2018-12-29T03:15:12.031Z,1.77
2018-12-29T03:21:35.520Z,1.70
2018-12-29T03:24:19.711Z,1.53
2018-12-29T03:27:03.885Z,1.67
2018-12-29T03:30:05.058Z,1.50
2018-12-29T03:32:48.894Z,1.40
2018-12-29T03:39:12.327Z,1.60
2018-12-29T03:42:13.539Z,1.30
2018-12-29T03:44:57.684Z,1.70
2018-12-29T03:47:42.055Z,1.42
2018-12-29T03:50:26.310Z,1.40
2018-12-29T03:56:49.104Z,1.40
2018-12-29T03:59:32.960Z,1.47
2018-12-29T04:02:16.730Z,1.20
2018-12-29T04:05:00.532Z,1.60
2018-12-29T04:11:24.219Z,1.70
2018-12-29T04:14:25.103Z,1.67
2018-12-29T04:17:08.870Z,1.60
2018-12-29T04:19:52.561Z,2.12
2018-12-29T04:22:53.916Z,2.20
2018-12-29T04:25:37.886Z,2.05
2018-12-29T04:28:22.214Z,2.40
2018-12-29T04:31:06.053Z,2.17
2018-12-29T04:37:29.303Z,1.65
2018-12-29T04:40:30.723Z,2.10
2018-12-29T04:43:14.710Z,2.00
2018-12-29T04:46:05.068Z,1.70
2018-12-29T04:48:44.063Z,2.00
2018-12-29T04:51:55.236Z,1.80
2018-12-29T04:58:02.616Z,1.80
2018-12-29T05:00:50.983Z,1.70
2018-12-29T05:03:35.130Z,1.70
2018-12-29T05:10:00.061Z,1.70
2018-12-29T05:12:43.560Z,1.57
2018-12-29T05:15:28.122Z,1.70
2018-12-29T05:18:12.351Z,1.52
2018-12-29T05:20:56.289Z,1.70
2018-12-29T05:23:40.326Z,1.47
2018-12-29T05:30:03.895Z,1.72
2018-12-29T05:33:05.204Z,1.32
2018-12-29T05:35:49.571Z,1.50
2018-12-29T05:42:13.094Z,1.50
2018-12-29T05:45:14.361Z,1.42
2018-12-29T05:47:58.563Z,1.50
2018-12-29T05:50:42.573Z,1.43
2018-12-29T05:53:26.555Z,1.27
2018-12-29T05:59:49.375Z,1.40
2018-12-29T06:02:33.242Z,1.30
2018-12-29T06:05:16.744Z,1.30
2018-12-29T06:08:01.462Z,1.30
2018-12-29T06:10:45.175Z,1.70
2018-12-29T06:13:46.190Z,1.40
2018-12-29T06:16:29.950Z,1.50
2018-12-29T06:22:53.004Z,1.45
2018-12-29T06:25:37.259Z,1.50
2018-12-29T06:28:21.065Z,1.40
2018-12-29T06:31:05.585Z,1.40
2018-12-29T06:33:48.952Z,1.33
2018-12-29T06:36:50.318Z,1.60
2018-12-29T06:39:34.782Z,1.32
2018-12-29T06:42:18.163Z,1.27
2018-12-29T06:45:02.748Z,1.30
2018-12-29T06:47:46.748Z,1.30
2018-12-29T06:50:48.310Z,1.50
2018-12-29T06:53:32.231Z,1.60
2018-12-29T06:59:56.019Z,1.37
2018-12-29T07:02:57.150Z,1.20
2018-12-29T07:05:41.146Z,1.40
2018-12-29T07:08:24.768Z,1.20
2018-12-29T07:11:08.560Z,1.30
2018-12-29T07:13:52.588Z,1.50
2018-12-29T07:16:53.610Z,1.40
2018-12-29T07:19:54.995Z,1.00
2018-12-29T07:22:39.125Z,1.30
2018-12-29T07:25:23.208Z,1.60
2018-12-29T07:31:46.823Z,1.15
2018-12-29T07:34:30.594Z,1.15
2018-12-29T07:40:53.976Z,1.10
2018-12-29T07:43:37.642Z,1.20
2018-12-29T07:50:01.308Z,1.30
2018-12-29T07:52:45.932Z,1.40
2018-12-29T07:55:29.627Z,1.20
2018-12-29T07:58:13.480Z,0.90
2018-12-29T08:00:57.502Z,1.10
2018-12-29T08:03:41.002Z,1.20
2018-12-29T08:10:04.182Z,1.20
2018-12-29T08:12:48.241Z,1.20
2018-12-29T08:15:31.822Z,1.15
2018-12-29T23:04:32.473Z,2.10
2018-12-29T23:07:16.200Z,2.00
2018-12-29T23:10:00.433Z,1.77
2018-12-29T23:13:01.572Z,2.40
2018-12-29T23:15:45.785Z,1.90
2018-12-29T23:22:09.887Z,1.92
2018-12-29T23:25:11.299Z,2.08
2018-12-29T23:28:12.898Z,1.90
2018-12-29T23:30:56.744Z,2.13
2018-12-29T23:33:40.043Z,2.50
2018-12-29T23:36:24.810Z,2.63
2018-12-29T23:39:08.440Z,2.10
2018-12-29T23:45:32.002Z,2.30
2018-12-29T23:48:33.255Z,2.15
2018-12-29T23:51:17.050Z,2.10
2018-12-29T23:54:01.121Z,2.40
2018-12-29T23:56:45.645Z,2.37
2018-12-29T23:59:29.512Z,2.10
